createdAt,value
2018-09-26T00:01:40.260Z,103394.53
2018-09-26T00:04:11.256Z,103383.38
2018-09-26T00:06:39.620Z,103355.45
2018-09-26T00:09:10.424Z,103357.89
2018-09-26T00:11:38.941Z,103363.53
2018-09-26T00:14:07.328Z,103346.66
2018-09-26T00:16:35.874Z,103338.69
2018-09-26T00:19:04.275Z,103337.09
2018-09-26T00:21:32.624Z,103331.66
2018-09-26T00:24:00.977Z,103330.16
2018-09-26T00:26:29.318Z,103328.92
2018-09-26T00:28:57.660Z,103331.86
2018-09-26T00:31:26.137Z,103326.75
2018-09-26T00:33:54.497Z,103332.37
2018-09-26T00:36:22.890Z,103329.77
2018-09-26T00:38:51.269Z,103332.71
2018-09-26T00:41:19.604Z,103333.10
2018-09-26T00:43:48.156Z,103336.06
2018-09-26T00:46:16.464Z,103331.58
2018-09-26T00:48:44.837Z,103332.05
2018-09-26T00:51:13.147Z,103321.17
2018-09-26T00:53:41.505Z,103328.86
2018-09-26T00:56:09.824Z,103317.45
2018-09-26T00:58:38.180Z,103321.49
2018-09-26T01:01:06.516Z,103318.95
2018-09-26T01:03:34.848Z,103329.70
2018-09-26T01:06:03.167Z,103316.14
2018-09-26T01:08:31.494Z,103307.95
2018-09-26T01:10:59.807Z,103306.58
2018-09-26T01:13:28.431Z,103293.59
2018-09-26T01:15:56.759Z,103287.45
2018-09-26T01:18:25.068Z,103277.34
2018-09-26T01:20:53.404Z,103270.41
2018-09-26T01:23:21.719Z,103256.67
2018-09-26T01:25:50.064Z,103258.97
2018-09-26T01:28:18.368Z,103250.08
2018-09-26T01:30:46.700Z,103250.41
2018-09-26T01:33:15.020Z,103255.70
2018-09-26T01:35:43.420Z,103249.41
2018-09-26T01:38:11.728Z,103257.88
2018-09-26T01:40:40.064Z,103264.87
2018-09-26T01:43:08.364Z,103260.42
2018-09-26T01:45:36.716Z,103255.53
2018-09-26T01:48:05.045Z,103253.87
2018-09-26T01:50:33.405Z,103261.74
2018-09-26T01:53:01.729Z,103260.70
2018-09-26T01:55:30.120Z,103254.39
2018-09-26T01:57:58.449Z,103257.81
2018-09-26T02:00:26.801Z,103255.67
2018-09-26T02:02:55.124Z,103243.90
2018-09-26T02:05:23.489Z,103243.09
2018-09-26T02:07:51.993Z,103237.59
2018-09-26T02:10:20.388Z,103228.41
2018-09-26T02:12:48.719Z,103230.64
2018-09-26T02:15:17.133Z,103221.55
2018-09-26T02:17:45.489Z,103226.67
2018-09-26T02:20:13.833Z,103223.13
2018-09-26T02:22:42.208Z,103221.81
2018-09-26T02:25:10.537Z,103222.24
2018-09-26T02:27:38.905Z,103213.64
2018-09-26T02:30:07.409Z,103206.27
2018-09-26T02:32:35.748Z,103205.04
2018-09-26T02:35:04.114Z,103198.52
2018-09-26T02:37:33.477Z,103200.72
2018-09-26T02:40:01.844Z,103190.04
2018-09-26T02:42:30.213Z,103189.27
2018-09-26T02:44:58.560Z,103203.09
2018-09-26T02:47:26.963Z,103201.60
2018-09-26T02:49:55.291Z,103199.11
2018-09-26T02:52:23.640Z,103200.64
2018-09-26T02:54:51.964Z,103199.02
2018-09-26T02:57:20.315Z,103193.82
2018-09-26T02:59:48.644Z,103186.72
2018-09-26T03:02:17.036Z,103195.83
2018-09-26T03:04:45.356Z,103186.72
2018-09-26T03:07:13.683Z,103173.92
2018-09-26T03:09:42.036Z,103162.51
2018-09-26T03:12:10.355Z,103160.93
2018-09-26T03:14:38.900Z,103152.52
2018-09-26T03:17:07.320Z,103153.19
2018-09-26T03:19:35.683Z,103146.28
2018-09-26T03:22:04.349Z,103145.70
2018-09-26T03:24:32.696Z,103138.92
2018-09-26T03:27:01.016Z,103136.53
2018-09-26T03:29:29.360Z,103135.76
2018-09-26T03:31:57.681Z,103128.82
2018-09-26T03:34:26.280Z,103129.59
2018-09-26T03:36:54.602Z,103120.88
2018-09-26T03:39:22.960Z,103122.80
2018-09-26T03:41:51.292Z,103117.22
2018-09-26T03:44:19.687Z,103114.67
2018-09-26T03:46:48.000Z,103110.82
2018-09-26T03:49:16.400Z,103101.34
2018-09-26T03:51:44.718Z,103106.28
2018-09-26T03:54:13.068Z,103100.95
2018-09-26T03:56:41.396Z,103098.61
2018-09-26T03:59:09.749Z,103094.17
2018-09-26T04:01:38.080Z,103077.02
2018-09-26T04:04:06.677Z,103073.72
2018-09-26T04:06:35.000Z,103078.95
2018-09-26T04:09:03.824Z,103074.09
2018-09-26T04:11:32.160Z,103066.78
2018-09-26T04:14:00.476Z,103069.05
2018-09-26T04:16:28.856Z,103058.95
2018-09-26T04:18:57.216Z,103053.06
2018-09-26T04:21:25.551Z,103048.75
2018-09-26T04:23:53.887Z,103035.31
2018-09-26T04:26:22.304Z,103032.44
2018-09-26T04:28:50.596Z,103023.03
2018-09-26T04:31:18.956Z,103025.01
2018-09-26T04:33:47.327Z,103023.20
2018-09-26T04:36:15.647Z,103020.02
2018-09-26T04:38:44.028Z,103021.72
2018-09-26T04:41:12.356Z,103016.24
2018-09-26T04:43:40.701Z,103019.50
2018-09-26T04:46:09.026Z,103008.52
2018-09-26T04:48:37.325Z,103006.48
2018-09-26T04:51:05.678Z,103006.33
2018-09-26T04:53:34.081Z,103001.16
2018-09-26T04:56:02.362Z,102992.90
2018-09-26T04:58:30.719Z,102998.01
2018-09-26T05:00:59.096Z,102992.56
2018-09-26T05:03:27.580Z,102994.39
2018-09-26T05:05:55.905Z,102982.05
2018-09-26T05:08:24.344Z,102978.20
2018-09-26T05:10:52.612Z,102974.35
2018-09-26T05:13:21.019Z,102970.27
2018-09-26T05:15:49.383Z,102961.19
2018-09-26T05:18:17.749Z,102967.74
2018-09-26T05:20:46.072Z,102967.36
2018-09-26T05:23:14.445Z,102964.09
2018-09-26T05:25:42.751Z,102961.53
2018-09-26T05:28:11.116Z,102935.72
2018-09-26T05:30:39.440Z,102915.33
2018-09-26T05:33:07.820Z,102927.50
2018-09-26T05:35:36.135Z,102923.80
2018-09-26T05:38:04.496Z,102925.97
2018-09-26T05:40:32.816Z,102921.13
2018-09-26T05:43:01.678Z,102918.48
2018-09-26T05:45:30.088Z,102916.17
2018-09-26T05:47:58.443Z,102922.75
2018-09-26T05:50:26.799Z,102920.74
2018-09-26T05:52:55.099Z,102917.78
2018-09-26T05:55:23.423Z,102926.75
2018-09-26T05:57:51.719Z,102914.96
2018-09-26T06:00:20.047Z,102917.80
2018-09-26T06:02:48.375Z,102917.48
2018-09-26T06:05:16.710Z,102920.36
2018-09-26T06:07:45.802Z,102946.05
2018-09-26T06:10:14.139Z,102921.62
2018-09-26T06:12:42.502Z,102929.70
2018-09-26T06:15:10.821Z,102924.17
2018-09-26T06:17:39.119Z,102919.55
2018-09-26T06:20:08.734Z,102930.05
2018-09-26T06:22:37.027Z,102913.77
2018-09-26T06:25:05.563Z,102896.34
2018-09-26T06:27:34.495Z,102885.01
2018-09-26T06:30:03.063Z,102889.31
2018-09-26T06:32:31.366Z,102886.02
2018-09-26T06:34:59.731Z,102879.74
2018-09-26T06:37:28.038Z,102886.87
2018-09-26T06:39:56.651Z,102870.03
2018-09-26T06:42:24.958Z,102863.34
2018-09-26T06:44:53.251Z,102866.50
2018-09-26T06:47:21.578Z,102874.58
2018-09-26T06:49:49.924Z,102867.61
2018-09-26T06:52:18.335Z,102874.15
2018-09-26T06:54:46.689Z,102870.53
2018-09-26T06:57:15.053Z,102888.20
2018-09-26T06:59:43.376Z,102884.88
2018-09-26T07:02:11.764Z,102877.71
2018-09-26T07:04:40.092Z,102883.57
2018-09-26T07:07:08.436Z,102879.58
2018-09-26T07:09:36.772Z,102877.45
2018-09-26T07:12:05.138Z,102860.97
2018-09-26T07:14:33.456Z,102869.95
2018-09-26T07:17:01.801Z,102861.17
2018-09-26T07:19:30.141Z,102846.27
2018-09-26T07:21:58.487Z,102852.78
2018-09-26T07:24:26.847Z,102860.57
2018-09-26T07:26:55.212Z,102870.08
2018-09-26T07:29:23.560Z,102878.53
2018-09-26T07:31:51.909Z,102865.62
2018-09-26T07:34:25.433Z,102879.22
2018-09-26T07:36:53.857Z,102890.38
2018-09-26T07:39:22.202Z,102882.88
2018-09-26T07:41:50.548Z,102895.30
2018-09-26T07:44:18.894Z,102877.19
2018-09-26T07:46:47.267Z,102880.69
2018-09-26T07:49:15.768Z,102870.58
2018-09-26T07:51:44.148Z,102881.84
2018-09-26T07:54:12.540Z,102872.30
2018-09-26T07:56:40.932Z,102872.80
2018-09-26T07:59:09.360Z,102864.63
2018-09-26T08:01:37.658Z,102845.52
2018-09-26T08:04:06.020Z,102840.48
2018-09-26T08:06:34.440Z,102867.58
2018-09-26T08:09:02.845Z,102862.12
2018-09-26T08:11:31.223Z,102870.81
2018-09-26T08:13:59.572Z,102873.73
2018-09-26T08:16:27.924Z,102863.28
2018-09-26T08:18:56.281Z,102846.30
2018-09-26T08:21:24.960Z,102848.73
2018-09-26T08:23:53.371Z,102841.02
2018-09-26T08:26:21.665Z,102840.25
2018-09-26T08:28:50.021Z,102845.73
2018-09-26T08:31:18.488Z,102844.37
2018-09-26T08:33:46.868Z,102822.55
2018-09-26T08:36:15.220Z,102832.59
2018-09-26T08:38:43.585Z,102826.09
2018-09-26T08:41:11.948Z,102809.61
2018-09-26T08:43:40.337Z,102777.48
2018-09-26T08:46:08.717Z,102793.34
2018-09-26T08:48:37.101Z,102769.22
2018-09-26T08:51:05.441Z,102791.09
2018-09-26T08:53:33.878Z,102791.13
2018-09-26T08:56:02.192Z,102773.98
2018-09-26T08:58:30.564Z,102766.63
2018-09-26T09:00:58.930Z,102762.23
2018-09-26T09:03:27.300Z,102755.79
2018-09-26T09:05:55.661Z,102744.48
2018-09-26T09:08:24.032Z,102754.07
2018-09-26T09:10:52.401Z,102753.23
2018-09-26T09:13:20.740Z,102773.00
2018-09-26T09:15:49.076Z,102754.47
2018-09-26T09:18:17.867Z,102768.86
2018-09-26T09:20:46.223Z,102751.73
2018-09-26T09:23:14.565Z,102747.52
2018-09-26T09:25:42.923Z,102742.73
2018-09-26T09:28:11.279Z,102768.56
2018-09-26T09:30:39.596Z,102726.23
2018-09-26T09:33:07.947Z,102733.90
2018-09-26T09:35:36.291Z,102746.00
2018-09-26T09:38:04.645Z,102723.57
2018-09-26T09:40:32.964Z,102716.03
2018-09-26T09:43:01.289Z,102705.73
2018-09-26T09:45:29.624Z,102722.20
2018-09-26T09:47:57.959Z,102732.28
2018-09-26T09:50:26.299Z,102717.59
2018-09-26T09:52:54.959Z,102716.39
2018-09-26T09:55:23.300Z,102743.65
2018-09-26T09:57:51.612Z,102732.11
2018-09-26T10:00:20.004Z,102741.05
2018-09-26T10:02:48.455Z,102695.64
2018-09-26T10:05:16.665Z,102723.47
2018-09-26T10:07:44.984Z,102724.70
2018-09-26T10:10:13.323Z,102711.00
2018-09-26T10:12:41.658Z,102708.86
2018-09-26T10:15:10.060Z,102716.91
2018-09-26T10:17:38.459Z,102696.96
2018-09-26T10:20:06.778Z,102712.33
2018-09-26T10:22:35.100Z,102701.02
2018-09-26T10:25:03.477Z,102740.76
2018-09-26T10:27:31.815Z,102728.37
2018-09-26T10:30:00.140Z,102720.61
2018-09-26T10:32:28.478Z,102742.19
2018-09-26T10:34:56.902Z,102700.82
2018-09-26T10:37:25.204Z,102694.41
2018-09-26T10:39:53.565Z,102682.47
2018-09-26T10:42:21.892Z,102680.18
2018-09-26T10:44:50.244Z,102702.39
2018-09-26T10:47:19.465Z,102705.53
2018-09-26T10:49:47.816Z,102698.64
2018-09-26T10:52:16.156Z,102701.00
2018-09-26T10:54:44.546Z,102673.33
2018-09-26T10:57:12.884Z,102658.58
2018-09-26T10:59:41.246Z,102677.37
2018-09-26T11:02:09.692Z,102677.74
2018-09-26T11:04:38.057Z,102696.39
2018-09-26T11:07:06.347Z,102668.86
2018-09-26T11:09:34.642Z,102688.73
2018-09-26T11:12:02.930Z,102662.68
2018-09-26T11:14:31.226Z,102653.81
2018-09-26T11:16:59.568Z,102640.13
2018-09-26T11:19:27.921Z,102643.20
2018-09-26T11:21:56.302Z,102657.42
2018-09-26T11:24:24.660Z,102652.03
2018-09-26T11:26:52.988Z,102650.08
2018-09-26T11:29:21.386Z,102647.77
2018-09-26T11:31:49.732Z,102626.98
2018-09-26T11:34:18.175Z,102618.72
2018-09-26T11:36:46.521Z,102611.76
2018-09-26T11:39:14.901Z,102634.00
2018-09-26T11:41:43.299Z,102618.86
2018-09-26T11:44:11.648Z,102632.89
2018-09-26T11:46:39.977Z,102606.82
2018-09-26T11:49:08.369Z,102611.03
2018-09-26T11:51:36.710Z,102625.47
2018-09-26T11:54:05.081Z,102626.92
2018-09-26T11:56:33.420Z,102637.23
2018-09-26T11:59:01.826Z,102634.95
2018-09-26T12:01:30.161Z,102635.20
2018-09-26T12:03:58.509Z,102632.56
2018-09-26T12:06:26.850Z,102632.91
2018-09-26T12:08:55.208Z,102637.13
2018-09-26T12:11:23.619Z,102625.69
2018-09-26T12:13:52.005Z,102630.41
2018-09-26T12:16:20.319Z,102631.00
2018-09-26T12:18:48.908Z,102623.19
2018-09-26T12:21:17.320Z,102616.78
2018-09-26T12:23:45.669Z,102634.94
2018-09-26T12:26:14.040Z,102621.50
2018-09-26T12:28:42.401Z,102620.55
2018-09-26T12:31:10.733Z,102630.27
2018-09-26T12:33:39.104Z,102601.28
2018-09-26T12:36:07.728Z,102610.92
2018-09-26T12:38:36.101Z,102612.95
2018-09-26T12:41:04.453Z,102604.77
2018-09-26T12:43:32.953Z,102598.41
2018-09-26T12:46:01.571Z,102601.77
2018-09-26T12:48:29.974Z,102593.92
2018-09-26T12:50:58.328Z,102591.19
2018-09-26T12:53:26.810Z,102586.62
2018-09-26T12:55:55.105Z,102602.49
2018-09-26T12:58:23.510Z,102606.21
2018-09-26T13:00:51.825Z,102578.66
2018-09-26T13:03:20.330Z,102571.69
2018-09-26T13:05:48.692Z,102565.81
2018-09-26T13:08:17.106Z,102570.75
2018-09-26T13:10:45.436Z,102561.72
2018-09-26T13:13:13.797Z,102564.37
2018-09-26T13:15:42.168Z,102588.19
2018-09-26T13:18:10.519Z,102562.36
2018-09-26T13:20:38.898Z,102557.88
2018-09-26T13:23:07.310Z,102560.55
2018-09-26T13:25:35.842Z,102563.42
2018-09-26T13:28:04.430Z,102565.00
2018-09-26T13:30:32.760Z,102571.62
2018-09-26T13:33:01.100Z,102568.00
2018-09-26T13:35:29.464Z,102581.34
2018-09-26T13:37:57.787Z,102584.95
2018-09-26T13:40:26.213Z,102582.89
2018-09-26T13:42:54.469Z,102572.22
2018-09-26T13:45:22.853Z,102593.38
2018-09-26T13:47:51.192Z,102576.91
2018-09-26T13:50:19.645Z,102582.66
2018-09-26T13:52:48.007Z,102582.77
2018-09-26T13:55:16.381Z,102617.35
2018-09-26T13:57:44.780Z,102597.00
2018-09-26T14:00:16.074Z,102602.97
2018-09-26T14:02:45.661Z,102586.65
2018-09-26T14:05:14.033Z,102578.55
2018-09-26T14:07:42.389Z,102614.53
2018-09-26T14:10:10.777Z,102584.48
2018-09-26T14:12:39.141Z,102573.17
2018-09-26T14:15:07.845Z,102580.05
2018-09-26T14:17:36.213Z,102566.78
2018-09-26T14:20:04.706Z,102572.70
2018-09-26T14:22:33.038Z,102573.66
2018-09-26T14:25:01.402Z,102572.84
2018-09-26T14:27:29.756Z,102566.37
2018-09-26T14:29:58.121Z,102554.88
2018-09-26T14:32:26.493Z,102574.56
2018-09-26T14:34:54.852Z,102595.65
2018-09-26T14:37:23.193Z,102603.41
2018-09-26T14:39:51.633Z,102593.25
2018-09-26T14:42:19.983Z,102584.58
2018-09-26T14:44:48.368Z,102583.14
2018-09-26T14:47:16.824Z,102568.70
2018-09-26T14:49:45.199Z,102562.52
2018-09-26T14:52:13.572Z,102571.95
2018-09-26T14:54:42.181Z,102563.79
2018-09-26T14:57:10.548Z,102547.71
2018-09-26T14:59:38.897Z,102574.27
2018-09-26T15:02:07.437Z,102561.83
2018-09-26T15:04:35.820Z,102568.34
2018-09-26T15:07:04.113Z,102567.46
2018-09-26T15:09:32.464Z,102552.95
2018-09-26T15:12:00.840Z,102571.78
2018-09-26T15:14:29.187Z,102570.62
2018-09-26T15:16:57.572Z,102565.11
2018-09-26T15:19:26.205Z,102547.88
2018-09-26T15:21:54.576Z,102553.39
2018-09-26T15:24:23.005Z,102550.16
2018-09-26T15:26:51.300Z,102569.10
2018-09-26T15:29:19.632Z,102549.91
2018-09-26T15:31:47.984Z,102573.50
2018-09-26T15:34:16.319Z,102543.84
2018-09-26T15:36:44.671Z,102544.67
2018-09-26T15:39:12.971Z,102545.63
2018-09-26T15:41:41.386Z,102564.66
2018-09-26T15:44:09.658Z,102564.97
2018-09-26T15:46:38.124Z,102540.35
2018-09-26T15:49:07.007Z,102539.03
2018-09-26T15:51:35.532Z,102536.67
2018-09-26T15:54:03.868Z,102519.81
2018-09-26T15:56:32.188Z,102540.20
2018-09-26T15:59:01.232Z,102513.97
2018-09-26T16:01:35.201Z,102521.45
2018-09-26T16:04:03.495Z,102515.66
2018-09-26T16:06:31.828Z,102516.17
2018-09-26T16:09:00.110Z,102517.61
2018-09-26T16:11:28.413Z,102518.48
2018-09-26T16:13:56.744Z,102526.16
2018-09-26T16:17:49.546Z,102537.40
2018-09-26T16:20:17.964Z,102515.33
2018-09-26T16:22:46.229Z,102536.32
2018-09-26T16:25:14.581Z,102529.56
2018-09-26T16:27:42.913Z,102554.22
2018-09-26T16:30:11.633Z,102555.90
2018-09-26T16:32:39.953Z,102561.98
2018-09-26T16:37:58.656Z,102555.66
2018-09-26T16:40:27.095Z,102565.26
2018-09-26T16:42:55.327Z,102554.72
2018-09-26T16:45:23.672Z,102552.19
2018-09-26T16:47:52.011Z,102555.97
2018-09-26T16:50:20.363Z,102556.26
2018-09-26T16:52:48.872Z,102539.86
2018-09-26T16:55:17.783Z,102549.50
2018-09-26T16:57:46.200Z,102528.39
2018-09-26T17:00:14.577Z,102531.45
2018-09-26T17:02:42.936Z,102546.50
2018-09-26T17:05:11.480Z,102551.13
2018-09-26T17:07:39.818Z,102531.36
2018-09-26T17:10:08.232Z,102542.30
2018-09-26T17:12:36.743Z,102548.05
2018-09-26T17:15:05.363Z,102535.25
2018-09-26T17:17:33.689Z,102530.04
2018-09-26T17:20:02.269Z,102530.94
2018-09-26T17:22:30.747Z,102525.66
2018-09-26T17:24:59.092Z,102531.83
2018-09-26T17:27:27.596Z,102531.13
2018-09-26T17:29:55.937Z,102564.23
2018-09-26T17:32:25.632Z,102563.77
2018-09-26T17:34:54.093Z,102561.75
2018-09-26T17:37:22.425Z,102547.13
2018-09-26T17:39:50.750Z,102566.25
2018-09-26T17:42:19.430Z,102542.02
2018-09-26T17:44:47.810Z,102554.91
2018-09-26T17:47:16.083Z,102547.34
2018-09-26T17:49:44.409Z,102545.19
2018-09-26T17:52:12.718Z,102557.42
2018-09-26T17:54:41.222Z,102546.51
2018-09-26T17:57:09.630Z,102547.52
2018-09-26T17:59:37.935Z,102543.11
2018-09-26T18:02:06.248Z,102536.05
2018-09-26T18:04:34.607Z,102527.80
2018-09-26T18:07:03.800Z,102521.33
2018-09-26T18:09:32.114Z,102555.75
2018-09-26T18:12:00.432Z,102523.25
2018-09-26T18:14:28.716Z,102533.00
2018-09-26T18:16:57.007Z,102553.62
2018-09-26T18:19:25.310Z,102543.52
2018-09-26T18:21:53.583Z,102540.77
2018-09-26T18:24:22.760Z,102533.01
2018-09-26T18:26:51.125Z,102526.92
2018-09-26T18:29:19.804Z,102529.45
2018-09-26T18:31:48.136Z,102540.44
2018-09-26T18:34:16.489Z,102530.56
2018-09-26T18:36:44.816Z,102537.12
2018-09-26T18:39:13.150Z,102517.22
2018-09-26T18:41:41.508Z,102522.38
2018-09-26T18:44:09.823Z,102550.23
2018-09-26T18:46:38.144Z,102537.16
2018-09-26T18:49:06.508Z,102539.60
2018-09-26T18:51:34.813Z,102526.92
2018-09-26T18:54:03.135Z,102536.32
2018-09-26T18:56:31.488Z,102525.69
2018-09-26T18:58:59.828Z,102525.77
2018-09-26T19:01:28.705Z,102515.02
2018-09-26T19:03:57.119Z,102543.36
2018-09-26T19:06:25.639Z,102539.08
2018-09-26T19:08:54.118Z,102553.17
2018-09-26T19:11:22.948Z,102549.38
2018-09-26T19:13:51.303Z,102577.57
2018-09-26T19:16:19.624Z,102573.52
2018-09-26T19:18:48.043Z,102563.58
2018-09-26T19:21:16.408Z,102552.78
2018-09-26T19:23:44.904Z,102557.22
2018-09-26T19:26:13.363Z,102576.45
2018-09-26T19:28:41.684Z,102563.03
2018-09-26T19:31:10.008Z,102560.71
2018-09-26T19:33:38.424Z,102560.87
2018-09-26T19:36:06.771Z,102568.78
2018-09-26T19:38:35.325Z,102583.84
2018-09-26T19:41:03.717Z,102573.41
2018-09-26T19:43:32.037Z,102574.77
2018-09-26T19:46:00.413Z,102576.47
2018-09-26T19:48:28.878Z,102591.20
2018-09-26T19:50:57.363Z,102571.30
2018-09-26T19:53:26.684Z,102575.90
2018-09-26T19:55:55.114Z,102558.19
2018-09-26T19:58:24.673Z,102549.52
2018-09-26T20:00:52.869Z,102546.64
2018-09-26T20:03:21.233Z,102547.36
2018-09-26T20:05:49.557Z,102547.39
2018-09-26T20:08:17.890Z,102547.28
2018-09-26T20:10:46.268Z,102548.39
2018-09-26T20:13:14.653Z,102560.11
2018-09-26T20:15:42.984Z,102554.03
2018-09-26T20:18:11.380Z,102559.10
2018-09-26T20:20:39.717Z,102562.19
2018-09-26T20:23:08.129Z,102566.75
2018-09-26T20:25:36.512Z,102565.67
2018-09-26T20:28:05.120Z,102567.83
2018-09-26T20:30:33.484Z,102570.83
2018-09-26T20:33:01.927Z,102580.27
2018-09-26T20:35:30.281Z,102574.82
2018-09-26T20:37:58.568Z,102561.95
2018-09-26T20:40:26.916Z,102545.36
2018-09-26T20:42:55.287Z,102559.10
2018-09-26T20:45:23.705Z,102561.86
2018-09-26T20:47:52.029Z,102563.51
2018-09-26T20:50:20.345Z,102563.54
2018-09-26T20:52:48.677Z,102573.73
2018-09-26T20:55:17.049Z,102561.47
2018-09-26T20:57:46.600Z,102572.78
2018-09-26T21:00:14.932Z,102569.06
2018-09-26T21:02:43.513Z,102571.34
2018-09-26T21:05:12.037Z,102579.50
2018-09-26T21:07:40.382Z,102574.10
2018-09-26T21:10:09.113Z,102578.69
2018-09-26T21:12:37.432Z,102574.70
2018-09-26T21:15:06.121Z,102582.98
2018-09-26T21:17:35.303Z,102600.63
2018-09-26T21:20:03.812Z,102573.50
2018-09-26T21:22:32.292Z,102588.30
2018-09-26T21:25:01.024Z,102577.16
2018-09-26T21:27:29.355Z,102582.56
2018-09-26T21:29:58.157Z,102589.98
2018-09-26T21:32:26.496Z,102580.73
2018-09-26T21:34:54.857Z,102580.08
2018-09-26T21:37:23.585Z,102582.92
2018-09-26T21:39:51.957Z,102576.09
2018-09-26T21:42:20.304Z,102568.92
2018-09-26T21:44:48.625Z,102571.31
2018-09-26T21:47:17.156Z,102572.97
2018-09-26T21:49:45.514Z,102568.80
2018-09-26T21:52:13.845Z,102572.52
2018-09-26T21:54:42.204Z,102574.22
2018-09-26T21:57:10.557Z,102575.69
2018-09-26T21:59:38.881Z,102575.78
2018-09-26T22:02:07.321Z,102575.03
2018-09-26T22:04:35.644Z,102582.41
2018-09-26T22:07:03.972Z,102580.27
2018-09-26T22:09:32.452Z,102568.22
2018-09-26T22:12:00.899Z,102575.21
2018-09-26T22:14:29.236Z,102573.64
2018-09-26T22:16:57.588Z,102571.39
2018-09-26T22:19:25.937Z,102564.06
2018-09-26T22:21:54.272Z,102573.67
2018-09-26T22:24:22.660Z,102572.85
2018-09-26T22:26:51.013Z,102566.44
2018-09-26T22:29:19.354Z,102574.75
2018-09-26T22:31:47.957Z,102563.97
2018-09-26T22:34:16.277Z,102562.79
2018-09-26T22:36:44.637Z,102559.18
2018-09-26T22:39:12.972Z,102563.03
2018-09-26T22:41:41.292Z,102570.96
2018-09-26T22:44:09.663Z,102563.97
2018-09-26T22:46:38.522Z,102551.73
2018-09-26T22:49:06.865Z,102547.66
2018-09-26T22:51:35.200Z,102548.76
2018-09-26T22:54:03.683Z,102543.47
2018-09-26T22:56:32.003Z,102553.56
2018-09-26T22:59:00.385Z,102548.62
2018-09-26T23:01:28.744Z,102552.33
2018-09-26T23:03:57.071Z,102561.72
2018-09-26T23:06:25.400Z,102558.47
2018-09-26T23:08:53.992Z,102557.61
2018-09-26T23:11:22.611Z,102558.95
2018-09-26T23:13:50.927Z,102552.59
2018-09-26T23:16:19.299Z,102557.15
2018-09-26T23:18:47.635Z,102561.26
2018-09-26T23:21:15.956Z,102541.42
2018-09-26T23:23:44.293Z,102551.28
2018-09-26T23:26:12.611Z,102550.33
2018-09-26T23:28:40.940Z,102550.92
2018-09-26T23:31:09.315Z,102544.06
2018-09-26T23:33:37.873Z,102547.94
2018-09-26T23:36:06.250Z,102545.51
2018-09-26T23:38:34.616Z,102544.94
2018-09-26T23:41:02.949Z,102547.19
2018-09-26T23:43:31.285Z,102543.97
2018-09-26T23:45:59.756Z,102552.00
2018-09-26T23:48:28.112Z,102545.04
2018-09-26T23:50:56.452Z,102547.34
2018-09-26T23:53:24.831Z,102549.86
2018-09-26T23:55:53.139Z,102543.72
2018-09-26T23:58:21.485Z,102548.52
